createdAt,value
2019-02-10T00:01:54.941Z,17.30
2019-02-10T00:06:00.001Z,15.20
2019-02-10T00:10:05.507Z,17.03
2019-02-10T00:14:11.581Z,19.93
2019-02-10T00:18:35.537Z,20.30
2019-02-10T00:22:42.102Z,20.30
2019-02-10T00:26:47.422Z,18.10
2019-02-10T00:30:52.725Z,19.67
2019-02-10T00:34:57.967Z,18.93
2019-02-10T00:39:04.782Z,19.47
2019-02-10T00:43:10.153Z,19.70
2019-02-10T00:47:15.219Z,18.30
2019-02-10T00:51:20.564Z,19.20
2019-02-10T00:55:25.803Z,17.07
2019-02-10T00:59:31.420Z,20.70
2019-02-10T01:03:36.634Z,21.17
2019-02-10T01:07:41.920Z,20.17
2019-02-10T01:11:47.184Z,17.70
2019-02-10T01:20:56.698Z,21.03
2019-02-10T01:25:01.890Z,16.00
2019-02-10T01:29:07.113Z,16.67
2019-02-10T01:33:12.290Z,16.23
2019-02-10T01:37:17.907Z,12.67
2019-02-10T01:41:23.117Z,17.70
2019-02-10T01:45:28.547Z,18.00
2019-02-10T01:49:33.834Z,20.40
2019-02-10T01:53:39.198Z,16.33
2019-02-10T01:57:44.540Z,18.30
2019-02-10T02:01:50.210Z,18.10
2019-02-10T02:05:55.487Z,15.17
2019-02-10T02:10:01.411Z,16.43
2019-02-10T02:14:06.615Z,17.37
2019-02-10T02:18:12.628Z,17.63
2019-02-10T02:22:18.584Z,18.80
2019-02-10T02:26:23.756Z,16.77
2019-02-10T02:30:29.088Z,18.77
2019-02-10T02:34:34.665Z,16.67
2019-02-10T02:38:39.970Z,15.77
2019-02-10T02:42:45.205Z,13.10
2019-02-10T02:46:50.568Z,16.63
2019-02-10T02:50:55.848Z,14.33
2019-02-10T02:55:01.021Z,13.83
2019-02-10T02:59:06.142Z,15.97
2019-02-10T03:03:11.574Z,15.17
2019-02-10T03:07:18.258Z,16.47
2019-02-10T03:11:23.723Z,15.47
2019-02-10T03:15:29.253Z,15.07
2019-02-10T03:19:34.481Z,15.93
2019-02-10T03:23:39.734Z,15.60
2019-02-10T03:27:45.874Z,13.10
2019-02-10T03:31:51.161Z,14.27
2019-02-10T03:35:56.939Z,13.97
2019-02-10T03:40:02.243Z,14.20
2019-02-10T03:44:07.422Z,14.77
2019-02-10T03:48:12.672Z,14.90
2019-02-10T03:52:17.934Z,14.50
2019-02-10T03:56:23.518Z,14.17
2019-02-10T04:00:28.797Z,12.73
2019-02-10T04:04:33.934Z,14.53
2019-02-10T04:08:40.239Z,12.83
2019-02-10T04:12:45.470Z,15.30
2019-02-10T04:16:50.767Z,14.47
2019-02-10T04:20:56.171Z,11.80
2019-02-10T04:25:01.427Z,13.83
2019-02-10T04:29:06.727Z,15.17
2019-02-10T04:33:11.895Z,15.23
2019-02-10T04:37:18.020Z,13.00
2019-02-10T04:41:23.415Z,11.00
2019-02-10T04:45:28.861Z,14.13
2019-02-10T04:49:33.910Z,12.97
2019-02-10T04:53:39.194Z,14.20
2019-02-10T04:57:44.929Z,10.80
2019-02-10T05:01:50.714Z,14.60
2019-02-10T05:05:56.577Z,14.60
2019-02-10T05:10:03.790Z,12.87
2019-02-10T05:14:10.888Z,13.20
2019-02-10T05:18:16.296Z,13.07
2019-02-10T05:22:22.329Z,14.37
2019-02-10T05:26:27.770Z,13.10
2019-02-10T05:30:33.967Z,12.30
2019-02-10T05:34:40.259Z,13.57
2019-02-10T05:38:45.753Z,12.80
2019-02-10T05:42:52.433Z,12.13
2019-02-10T05:46:59.031Z,13.43
2019-02-10T05:51:07.266Z,12.37
2019-02-10T05:55:13.028Z,11.57
2019-02-10T05:59:20.963Z,14.80
2019-02-10T06:03:26.774Z,13.97
2019-02-10T06:07:32.210Z,13.87
2019-02-10T06:11:38.397Z,17.30
2019-02-10T06:15:44.145Z,13.20
2019-02-10T06:19:55.020Z,14.10
2019-02-10T06:24:01.556Z,14.23
2019-02-10T06:28:06.899Z,12.40
2019-02-10T06:32:14.051Z,14.57
2019-02-10T06:36:20.243Z,16.77
2019-02-10T06:40:26.578Z,11.93
2019-02-10T06:44:33.726Z,16.20
2019-02-10T06:48:39.370Z,15.70
2019-02-10T06:52:47.374Z,14.47
2019-02-10T06:56:55.039Z,13.90
2019-02-10T07:01:27.732Z,14.20
2019-02-10T07:05:34.073Z,12.93
2019-02-10T07:09:39.395Z,14.37
2019-02-10T07:13:48.215Z,13.10
2019-02-10T07:18:29.501Z,13.70
2019-02-10T07:22:57.250Z,15.70
2019-02-10T07:27:10.904Z,11.90
2019-02-10T07:31:21.801Z,12.40
2019-02-10T07:35:58.033Z,13.80
2019-02-10T07:41:05.152Z,14.63
2019-02-10T07:45:51.509Z,14.43
2019-02-10T07:50:55.459Z,14.80
2019-02-10T07:55:38.041Z,14.03
2019-02-10T08:00:37.576Z,13.13
2019-02-10T08:05:21.259Z,14.10
2019-02-10T08:10:04.719Z,15.37
2019-02-10T08:15:02.421Z,13.97
2019-02-10T08:19:35.005Z,14.43
2019-02-10T08:23:53.042Z,13.03
2019-02-10T08:28:40.019Z,14.40
2019-02-10T08:33:27.915Z,13.90
2019-02-10T08:38:09.815Z,12.90
2019-02-10T08:42:38.044Z,13.97
2019-02-10T08:47:09.103Z,14.67
2019-02-10T08:51:39.958Z,12.57
2019-02-10T08:55:48.366Z,10.50
2019-02-10T08:59:54.846Z,13.30
2019-02-10T09:04:00.421Z,11.30
2019-02-10T09:08:05.575Z,9.90
2019-02-10T09:12:10.685Z,12.10
2019-02-10T09:16:16.259Z,10.03
2019-02-10T09:20:21.614Z,10.40
2019-02-10T09:24:27.103Z,10.70
2019-02-10T09:28:33.681Z,10.80
2019-02-10T09:32:41.127Z,10.30
2019-02-10T09:36:47.099Z,9.30
2019-02-10T09:40:52.214Z,9.87
2019-02-10T09:44:58.819Z,8.93
2019-02-10T09:49:05.044Z,10.03
2019-02-10T09:53:11.666Z,14.80
2019-02-10T09:57:18.131Z,10.47
2019-02-10T10:01:24.143Z,10.90
2019-02-10T10:05:29.858Z,11.60
2019-02-10T10:09:34.840Z,10.53
2019-02-10T10:13:39.931Z,11.07
2019-02-10T10:17:45.302Z,14.37
2019-02-10T10:21:50.193Z,13.10
2019-02-10T10:25:56.842Z,18.63
2019-02-10T10:30:01.823Z,16.60
2019-02-10T10:34:08.593Z,18.47
2019-02-10T10:38:14.675Z,15.90
2019-02-10T10:42:19.596Z,14.00
2019-02-10T10:46:25.026Z,15.80
2019-02-10T10:50:31.046Z,14.73
2019-02-10T10:54:42.691Z,15.20
2019-02-10T10:58:43.856Z,15.83
2019-02-10T11:02:48.897Z,12.83
2019-02-10T11:06:53.833Z,16.60
2019-02-10T11:10:59.041Z,13.97
2019-02-10T11:15:05.545Z,13.83
2019-02-10T11:19:10.762Z,13.97
2019-02-10T11:23:16.145Z,14.17
2019-02-10T11:27:21.259Z,14.90
2019-02-10T11:31:26.203Z,15.43
2019-02-10T11:35:32.336Z,13.80
2019-02-10T11:39:43.693Z,12.80
2019-02-10T11:43:46.545Z,13.07
2019-02-10T11:47:53.722Z,12.40
2019-02-10T11:52:01.047Z,13.87
2019-02-10T11:56:06.924Z,14.60
2019-02-10T12:00:13.305Z,14.33
2019-02-10T12:04:20.723Z,12.63
2019-02-10T12:08:34.164Z,13.70
2019-02-10T12:12:32.726Z,12.53
2019-02-10T12:16:39.403Z,12.70
2019-02-10T12:20:44.837Z,13.30
2019-02-10T12:24:49.877Z,12.40
2019-02-10T12:28:55.819Z,11.73
2019-02-10T12:33:00.730Z,13.03
2019-02-10T12:37:05.787Z,13.10
2019-02-10T12:41:12.670Z,14.50
2019-02-10T12:45:18.153Z,12.80
2019-02-10T12:49:24.492Z,13.57
2019-02-10T12:53:30.665Z,11.53
2019-02-10T12:57:37.437Z,11.53
2019-02-10T13:01:44.329Z,14.80
2019-02-10T13:05:52.453Z,11.50
2019-02-10T13:09:57.901Z,11.43
2019-02-10T13:14:05.042Z,13.50
2019-02-10T13:18:11.492Z,10.63
2019-02-10T13:22:21.339Z,10.10
2019-02-10T13:26:27.216Z,11.30
2019-02-10T13:30:34.266Z,10.70
2019-02-10T13:34:40.484Z,11.90
2019-02-10T13:38:46.597Z,10.70
2019-02-10T13:42:53.065Z,9.50
2019-02-10T13:46:58.380Z,10.17
2019-02-10T13:51:05.302Z,11.07
2019-02-10T13:55:11.825Z,11.87
2019-02-10T13:59:16.851Z,10.73
2019-02-10T14:03:23.036Z,10.57
2019-02-10T14:07:28.423Z,12.40
2019-02-10T14:11:33.296Z,10.00
2019-02-10T14:15:38.222Z,10.73
2019-02-10T14:19:44.309Z,10.20
2019-02-10T14:23:49.637Z,10.80
2019-02-10T14:27:56.121Z,11.50
2019-02-10T14:32:01.733Z,9.23
2019-02-10T14:36:09.142Z,9.60
2019-02-10T14:40:14.273Z,10.30
2019-02-10T14:44:20.554Z,10.07
2019-02-10T14:48:26.370Z,10.00
2019-02-10T14:52:32.949Z,11.27
2019-02-10T14:56:39.483Z,12.10
2019-02-10T15:00:45.560Z,9.80
2019-02-10T15:04:50.527Z,9.40
2019-02-10T15:08:55.585Z,10.80
2019-02-10T15:13:00.896Z,8.80
2019-02-10T15:17:06.466Z,8.90
2019-02-10T15:21:12.981Z,13.00
2019-02-10T15:25:18.391Z,10.40
2019-02-10T15:29:24.909Z,9.63
2019-02-10T15:33:30.363Z,7.27
2019-02-10T15:37:36.764Z,4.07
2019-02-10T15:41:42.246Z,7.20
2019-02-10T15:45:47.389Z,6.17
2019-02-10T15:49:53.519Z,5.90
2019-02-10T15:53:59.083Z,3.97
2019-02-10T15:58:06.222Z,4.70
2019-02-10T16:02:13.713Z,4.10
2019-02-10T16:06:20.064Z,4.17
2019-02-10T16:10:25.180Z,3.63
2019-02-10T16:14:31.932Z,3.73
2019-02-10T16:18:38.924Z,3.53
2019-02-10T16:22:45.189Z,3.27
2019-02-10T16:26:50.845Z,3.70
2019-02-10T16:30:56.194Z,3.50
2019-02-10T16:35:03.148Z,3.03
2019-02-10T16:39:15.134Z,2.93
2019-02-10T16:43:21.332Z,2.97
2019-02-10T16:47:26.614Z,3.67
2019-02-10T16:51:33.669Z,3.37
2019-02-10T16:55:39.483Z,2.50
2019-02-10T16:59:46.101Z,3.03
2019-02-10T17:03:51.438Z,4.53
2019-02-10T17:07:58.003Z,4.10
2019-02-10T17:12:05.866Z,4.30
2019-02-10T17:16:12.498Z,3.97
2019-02-10T17:20:19.051Z,3.40
2019-02-10T17:24:24.530Z,4.23
2019-02-10T17:28:30.001Z,3.57
2019-02-10T17:32:36.790Z,3.63
2019-02-10T17:36:42.105Z,3.00
2019-02-10T17:40:56.361Z,2.87
2019-02-10T17:45:02.972Z,2.03
2019-02-10T17:49:09.466Z,2.37
2019-02-10T17:53:14.936Z,1.47
2019-02-10T17:57:23.029Z,2.40
2019-02-10T18:01:30.630Z,3.30
2019-02-10T18:05:35.914Z,2.40
2019-02-10T18:09:41.964Z,2.17
2019-02-10T18:13:48.626Z,2.00
2019-02-10T18:18:24.889Z,2.90
2019-02-10T18:23:02.131Z,2.37
2019-02-10T18:27:25.582Z,2.03
2019-02-10T18:32:01.142Z,2.93
2019-02-10T18:36:39.361Z,2.67
2019-02-10T18:41:13.682Z,3.17
2019-02-10T18:45:27.113Z,2.60
2019-02-10T18:49:54.475Z,2.77
2019-02-10T18:54:20.993Z,2.60
2019-02-10T18:58:54.457Z,2.40
2019-02-10T19:03:03.918Z,2.17
2019-02-10T19:07:32.697Z,2.87
2019-02-10T19:11:56.661Z,2.63
2019-02-10T19:16:14.975Z,2.50
2019-02-10T19:20:33.627Z,2.30
2019-02-10T19:24:56.805Z,2.67
2019-02-10T19:29:25.579Z,3.17
2019-02-10T19:33:56.384Z,2.60
2019-02-10T19:38:29.592Z,3.30
2019-02-10T19:43:13.146Z,2.90
2019-02-10T19:47:43.251Z,3.07
2019-02-10T19:52:12.010Z,2.83
2019-02-10T19:56:36.715Z,2.30
2019-02-10T20:01:24.651Z,2.50
2019-02-10T20:05:48.303Z,2.20
2019-02-10T20:10:11.351Z,2.20
2019-02-10T20:14:38.486Z,1.90
2019-02-10T20:18:55.400Z,2.20
2019-02-10T20:23:23.963Z,2.07
2019-02-10T20:27:45.481Z,2.00
2019-02-10T20:32:27.937Z,2.30
2019-02-10T20:37:04.100Z,1.47
2019-02-10T20:41:25.686Z,2.40
2019-02-10T20:46:09.015Z,2.67
2019-02-10T20:50:40.111Z,2.37
2019-02-10T20:55:15.369Z,3.30
2019-02-10T20:59:43.479Z,3.30
2019-02-10T21:04:03.486Z,3.03
2019-02-10T21:08:26.758Z,3.63
2019-02-10T21:12:42.657Z,2.90
2019-02-10T21:17:06.429Z,2.80
2019-02-10T21:21:45.797Z,1.50
2019-02-10T21:26:06.921Z,3.30
2019-02-10T21:30:29.538Z,2.03
2019-02-10T21:34:43.272Z,1.50
2019-02-10T21:38:54.666Z,2.17
2019-02-10T21:43:12.917Z,3.40
2019-02-10T21:47:40.182Z,2.80
2019-02-10T21:51:45.134Z,2.20
2019-02-10T21:55:50.101Z,2.10
2019-02-10T21:59:55.255Z,1.57
2019-02-10T22:04:00.178Z,2.00
2019-02-10T22:08:05.207Z,1.70
2019-02-10T22:12:10.297Z,1.97
2019-02-10T22:16:15.297Z,1.27
2019-02-10T22:20:20.257Z,1.80
2019-02-10T22:24:25.364Z,1.50
2019-02-10T22:28:30.240Z,2.13
2019-02-10T22:32:35.673Z,2.30
2019-02-10T22:36:40.566Z,1.43
2019-02-10T22:40:45.871Z,1.93
2019-02-10T22:44:50.784Z,1.77
2019-02-10T22:48:55.738Z,2.60
2019-02-10T22:53:01.113Z,2.47
2019-02-10T22:57:06.057Z,2.43
2019-02-10T23:01:11.177Z,2.57
2019-02-10T23:05:16.093Z,2.47
2019-02-10T23:09:24.018Z,2.10
2019-02-10T23:13:28.921Z,2.60
2019-02-10T23:17:33.982Z,1.87
2019-02-10T23:21:38.892Z,2.30
2019-02-10T23:25:43.807Z,2.10
2019-02-10T23:29:49.805Z,1.40
2019-02-10T23:33:54.696Z,0.90
2019-02-10T23:37:59.686Z,0.70
2019-02-10T23:42:04.551Z,0.67
2019-02-10T23:46:09.605Z,0.77
2019-02-10T23:50:14.607Z,0.70
2019-02-10T23:54:19.514Z,0.67
2019-02-10T23:58:24.395Z,0.70
